createdAt,value
2022-10-24T00:00:14.436Z,27.25
2022-10-24T00:02:44.447Z,40.63
2022-10-24T00:05:17.159Z,49.15
2022-10-24T00:07:47.136Z,43.70
2022-10-24T00:10:19.897Z,46.75
2022-10-24T00:12:49.833Z,53.63
2022-10-24T00:15:19.682Z,59.90
2022-10-24T00:17:49.780Z,52.47
2022-10-24T00:20:19.568Z,63.95
2022-10-24T00:22:49.468Z,71.57
2022-10-24T00:25:19.508Z,60.17
2022-10-24T00:27:49.366Z,58.42
2022-10-24T00:30:19.339Z,56.90
2022-10-24T00:32:49.574Z,59.92
2022-10-24T00:35:19.817Z,73.72
2022-10-24T00:37:49.819Z,73.72
2022-10-24T00:40:22.308Z,77.72
2022-10-24T00:42:52.556Z,74.68
2022-10-24T00:45:46.377Z,73.57
2022-10-24T00:48:32.739Z,84.55
2022-10-24T00:51:23.308Z,68.43
2022-10-24T00:54:00.654Z,53.13
2022-10-24T00:56:37.687Z,52.97
2022-10-24T00:59:10.756Z,43.28
2022-10-24T01:01:41.072Z,42.88
2022-10-24T01:04:15.757Z,45.20
2022-10-24T01:07:20.779Z,49.42
2022-10-24T01:13:46.567Z,41.97
2022-10-24T01:16:55.852Z,47.83
2022-10-24T01:19:51.077Z,53.22
2022-10-24T01:22:27.926Z,41.90
2022-10-24T01:25:26.523Z,40.83
2022-10-24T01:28:10.149Z,35.53
2022-10-24T01:30:48.675Z,42.17
2022-10-24T01:33:39.956Z,34.33
2022-10-24T01:36:15.813Z,30.05
2022-10-24T01:38:52.186Z,46.25
2022-10-24T01:41:25.677Z,39.78
2022-10-24T01:44:16.377Z,60.90
2022-10-24T01:47:04.194Z,43.40
2022-10-24T01:49:38.778Z,60.13
2022-10-24T01:52:15.166Z,52.28
2022-10-24T01:54:47.134Z,53.35
2022-10-24T01:57:17.276Z,66.18
2022-10-24T01:59:49.962Z,49.75
2022-10-24T02:02:29.584Z,70.05
2022-10-24T02:05:24.176Z,58.73
2022-10-24T02:07:59.743Z,79.93
2022-10-24T02:10:34.174Z,66.88
2022-10-24T02:13:13.124Z,55.53
2022-10-24T02:15:49.899Z,56.75
2022-10-24T02:18:20.597Z,57.00
2022-10-24T02:20:59.793Z,57.08
2022-10-24T02:23:48.604Z,53.08
2022-10-24T02:26:34.808Z,69.68
2022-10-24T02:29:11.268Z,68.95
2022-10-24T02:31:46.657Z,76.50
2022-10-24T02:34:20.141Z,77.65
2022-10-24T02:36:54.352Z,75.10
2022-10-24T02:39:26.106Z,66.63
2022-10-24T02:41:57.880Z,88.40
2022-10-24T02:44:29.263Z,81.85
2022-10-24T02:47:03.261Z,77.85
2022-10-24T02:49:33.436Z,76.45
2022-10-24T02:52:04.032Z,75.78
2022-10-24T02:54:34.633Z,73.60
2022-10-24T02:57:06.966Z,76.57
2022-10-24T02:59:38.686Z,73.95
2022-10-24T03:02:09.078Z,71.32
2022-10-24T03:04:38.911Z,73.10
2022-10-24T03:07:09.079Z,79.38
2022-10-24T03:09:39.618Z,96.80
2022-10-24T03:12:10.819Z,89.45
2022-10-24T03:14:41.459Z,91.28
2022-10-24T03:17:11.739Z,70.38
2022-10-24T03:22:11.545Z,74.13
2022-10-24T03:24:54.894Z,81.22
2022-10-24T03:27:25.713Z,74.40
2022-10-24T03:35:00.936Z,80.63
2022-10-24T03:37:31.376Z,74.15
2022-10-24T03:40:01.902Z,86.68
2022-10-24T03:42:31.804Z,82.38
2022-10-24T03:45:03.023Z,96.80
2022-10-24T03:47:33.453Z,85.82
2022-10-24T03:50:04.084Z,79.63
2022-10-24T03:52:33.777Z,73.03
2022-10-24T03:55:03.779Z,67.40
2022-10-24T03:57:33.640Z,73.80
2022-10-24T04:00:07.359Z,72.13
2022-10-24T04:02:40.251Z,78.63
2022-10-24T04:05:13.546Z,65.38
2022-10-24T04:07:44.441Z,73.72
2022-10-24T04:10:18.132Z,87.43
2022-10-24T04:12:48.886Z,88.20
2022-10-24T04:15:19.735Z,88.78
2022-10-24T04:17:50.366Z,90.45
2022-10-24T04:20:22.151Z,76.10
2022-10-24T04:22:52.584Z,81.53
2022-10-24T04:25:23.682Z,79.63
2022-10-24T04:27:54.525Z,67.53
2022-10-24T04:30:24.880Z,69.22
2022-10-24T04:32:56.314Z,74.63
2022-10-24T04:35:28.224Z,60.17
2022-10-24T04:37:58.436Z,59.83
2022-10-24T04:40:28.556Z,64.93
2022-10-24T04:45:28.307Z,69.63
2022-10-24T04:47:58.793Z,66.97
2022-10-24T04:50:28.698Z,64.20
2022-10-24T04:52:58.561Z,63.90
2022-10-24T04:55:28.526Z,62.67
2022-10-24T05:00:28.246Z,55.42
2022-10-24T05:05:29.454Z,54.50
2022-10-24T05:10:29.240Z,50.25
2022-10-24T05:12:59.330Z,43.33
2022-10-24T05:15:31.672Z,43.78
2022-10-24T05:18:02.550Z,41.15
2022-10-24T05:20:32.686Z,44.90
2022-10-24T05:23:02.617Z,43.90
2022-10-24T05:25:33.156Z,46.95
2022-10-24T05:28:03.068Z,50.05
2022-10-24T05:33:02.581Z,52.33
2022-10-24T05:38:01.807Z,49.20
2022-10-24T05:40:32.122Z,42.40
2022-10-24T05:43:01.998Z,38.85
2022-10-24T05:45:31.891Z,32.65
2022-10-24T05:48:01.785Z,49.85
2022-10-24T05:53:01.473Z,47.30
2022-10-24T05:55:33.106Z,34.90
2022-10-24T05:58:02.992Z,40.55
2022-10-24T06:03:06.404Z,33.47
2022-10-24T06:05:36.144Z,40.55
2022-10-24T06:08:06.129Z,41.45
2022-10-24T06:13:06.071Z,67.80
2022-10-24T06:15:36.602Z,38.55
2022-10-24T06:18:06.498Z,34.60
2022-10-24T06:23:05.779Z,41.08
2022-10-24T06:25:35.554Z,40.38
2022-10-24T06:28:05.727Z,46.42
2022-10-24T06:30:36.649Z,27.33
2022-10-24T06:33:06.505Z,37.03
2022-10-24T06:38:05.908Z,21.92
2022-10-24T06:40:35.904Z,16.08
2022-10-24T06:43:05.847Z,24.60
2022-10-24T06:45:35.876Z,20.58
2022-10-24T06:48:05.853Z,11.05
2022-10-24T06:50:35.926Z,16.20
2022-10-24T06:53:06.021Z,13.52
2022-10-24T06:55:36.745Z,19.80
2022-10-24T06:58:08.612Z,18.35
2022-10-24T07:00:39.858Z,13.25
2022-10-24T07:03:09.817Z,13.18
2022-10-24T07:05:41.750Z,15.00
2022-10-24T07:08:13.442Z,12.38
2022-10-24T07:10:43.576Z,12.88
2022-10-24T07:13:13.411Z,21.83
2022-10-24T07:18:18.122Z,13.85
2022-10-24T07:20:48.056Z,19.35
2022-10-24T07:23:18.047Z,6.60
2022-10-24T07:25:49.142Z,11.75
2022-10-24T07:28:19.716Z,14.05
2022-10-24T07:30:50.499Z,11.93
2022-10-24T07:33:20.877Z,12.18
2022-10-24T07:35:51.454Z,16.55
2022-10-24T07:38:21.966Z,11.45
2022-10-24T07:40:53.383Z,17.95
2022-10-24T07:43:24.066Z,12.52
2022-10-24T07:45:54.696Z,12.45
2022-10-24T07:48:25.048Z,18.17
2022-10-24T07:50:56.800Z,12.95
2022-10-24T07:53:29.331Z,13.05
2022-10-24T07:56:03.364Z,11.10
2022-10-24T07:58:34.063Z,10.38
2022-10-24T08:01:21.682Z,11.20
2022-10-24T08:03:52.464Z,9.52
2022-10-24T08:06:26.228Z,12.82
2022-10-24T08:08:57.041Z,12.50
2022-10-24T08:11:31.361Z,11.23
2022-10-24T08:14:04.692Z,18.33
2022-10-24T08:16:35.591Z,17.77
2022-10-24T08:19:07.247Z,15.40
2022-10-24T08:21:38.399Z,15.75
2022-10-24T08:24:09.098Z,13.40
2022-10-24T08:26:42.807Z,13.93
2022-10-24T08:29:16.817Z,13.18
2022-10-24T08:31:48.556Z,15.02
2022-10-24T08:34:20.316Z,12.40
2022-10-24T08:36:53.198Z,10.00
2022-10-24T08:39:23.561Z,8.80
2022-10-24T08:42:00.296Z,14.00
2022-10-24T08:44:37.858Z,17.23
2022-10-24T08:47:33.331Z,9.57
2022-10-24T08:50:36.283Z,12.77
2022-10-24T08:53:13.426Z,8.32
2022-10-24T08:55:49.790Z,13.00
2022-10-24T08:58:31.704Z,7.40
2022-10-24T09:01:05.470Z,14.52
2022-10-24T09:03:56.886Z,9.10
2022-10-24T09:06:30.421Z,8.20
2022-10-24T09:09:23.677Z,8.90
2022-10-24T09:12:04.785Z,16.42
2022-10-24T09:14:38.923Z,10.15
2022-10-24T09:17:23.462Z,11.75
2022-10-24T09:20:02.246Z,11.07
2022-10-24T09:22:39.425Z,11.77
2022-10-24T09:27:48.048Z,11.32
2022-10-24T09:30:22.733Z,12.50
2022-10-24T09:32:53.534Z,8.20
2022-10-24T09:35:30.698Z,12.48
2022-10-24T09:38:21.462Z,19.17
2022-10-24T09:40:57.772Z,13.15
2022-10-24T09:43:43.190Z,18.25
2022-10-24T09:46:20.351Z,18.58
2022-10-24T09:49:05.267Z,15.88
2022-10-24T09:51:39.853Z,18.00
2022-10-24T09:54:28.760Z,16.58
2022-10-24T09:57:26.929Z,13.80
2022-10-24T10:00:03.299Z,16.80
2022-10-24T10:02:38.387Z,19.55
2022-10-24T10:05:21.155Z,18.00
2022-10-24T10:07:53.353Z,21.42
2022-10-24T10:10:34.756Z,19.80
2022-10-24T10:13:27.095Z,15.73
2022-10-24T10:16:02.100Z,16.55
2022-10-24T10:18:47.484Z,25.20
2022-10-24T10:21:22.885Z,28.92
2022-10-24T10:23:58.651Z,30.35
2022-10-24T10:26:48.032Z,21.80
2022-10-24T10:29:27.664Z,31.52
2022-10-24T10:32:08.827Z,30.58
2022-10-24T10:34:49.282Z,42.60
2022-10-24T10:37:37.375Z,39.78
2022-10-24T10:40:45.638Z,46.13
2022-10-24T10:43:45.025Z,30.15
2022-10-24T10:46:45.403Z,36.40
2022-10-24T10:49:26.837Z,22.67
2022-10-24T10:52:26.799Z,20.13
2022-10-24T10:55:26.035Z,24.70
2022-10-24T10:58:12.919Z,19.25
2022-10-24T11:01:03.366Z,33.40
2022-10-24T11:04:06.443Z,16.50
2022-10-24T11:06:54.230Z,25.77
2022-10-24T11:09:45.874Z,20.13
2022-10-24T11:12:31.693Z,17.63
2022-10-24T11:15:16.318Z,22.98
2022-10-24T11:17:57.056Z,22.05
2022-10-24T11:20:52.986Z,31.48
2022-10-24T11:23:57.610Z,19.40
2022-10-24T11:26:42.936Z,21.05
2022-10-24T11:29:36.935Z,24.13
2022-10-24T11:32:24.347Z,23.23
2022-10-24T11:35:09.886Z,28.38
2022-10-24T11:37:43.826Z,22.75
2022-10-24T11:40:22.544Z,37.75
2022-10-24T11:43:19.184Z,23.30
2022-10-24T11:46:13.061Z,36.60
2022-10-24T11:48:59.244Z,30.92
2022-10-24T11:51:41.273Z,23.20
2022-10-24T11:54:26.029Z,22.25
2022-10-24T11:57:02.546Z,20.20
2022-10-24T11:59:32.952Z,25.05
2022-10-24T12:02:39.931Z,33.65
2022-10-24T12:05:32.500Z,24.15
2022-10-24T12:08:32.007Z,26.55
2022-10-24T12:11:20.498Z,27.20
2022-10-24T12:14:10.615Z,24.85
2022-10-24T12:17:00.871Z,20.70
2022-10-24T12:22:04.702Z,21.80
2022-10-24T12:24:38.769Z,26.23
2022-10-24T12:27:22.784Z,29.08
2022-10-24T12:30:20.378Z,25.35
2022-10-24T12:32:58.316Z,29.63
2022-10-24T12:35:53.580Z,43.03
2022-10-24T12:39:02.235Z,28.35
2022-10-24T12:41:42.812Z,35.53
2022-10-24T12:44:38.527Z,32.65
2022-10-24T12:47:43.205Z,30.55
2022-10-24T12:50:51.862Z,33.60
2022-10-24T12:53:34.659Z,41.88
2022-10-24T12:56:12.320Z,36.85
2022-10-24T12:58:44.788Z,43.00
2022-10-24T13:01:29.131Z,38.05
2022-10-24T13:04:28.243Z,41.67
2022-10-24T13:07:36.981Z,31.75
2022-10-24T13:10:36.033Z,43.03
2022-10-24T13:13:34.208Z,46.67
2022-10-24T13:16:20.826Z,45.05
2022-10-24T13:19:06.894Z,51.08
2022-10-24T13:21:56.582Z,53.70
2022-10-24T13:24:36.246Z,70.30
2022-10-24T13:27:28.509Z,65.05
2022-10-24T13:30:24.586Z,57.78
2022-10-24T13:33:14.136Z,53.15
2022-10-24T13:35:44.766Z,61.60
2022-10-24T13:38:16.424Z,62.35
2022-10-24T13:40:47.956Z,76.13
2022-10-24T13:43:21.421Z,74.57
2022-10-24T13:46:13.241Z,67.18
2022-10-24T13:48:49.904Z,60.65
2022-10-24T13:51:28.153Z,74.72
2022-10-24T13:54:09.071Z,59.97
2022-10-24T13:56:42.170Z,66.40
2022-10-24T13:59:31.550Z,84.78
2022-10-24T14:02:08.174Z,91.70
2022-10-24T14:04:38.504Z,73.03
2022-10-24T14:07:11.758Z,75.47
2022-10-24T14:09:45.172Z,62.40
2022-10-24T14:12:24.794Z,60.80
2022-10-24T14:14:56.268Z,53.80
2022-10-24T14:17:32.901Z,54.80
2022-10-24T14:20:24.927Z,50.33
2022-10-24T14:22:55.132Z,139.25
2022-10-24T14:28:22.587Z,87.93
2022-10-24T14:31:06.691Z,90.82
2022-10-24T14:33:47.477Z,117.28
2022-10-24T14:36:18.604Z,98.63
2022-10-24T14:38:49.261Z,81.50
2022-10-24T14:41:26.224Z,71.18
2022-10-24T14:44:00.323Z,74.30
2022-10-24T14:46:44.881Z,66.70
2022-10-24T14:49:43.203Z,60.78
2022-10-24T14:52:26.010Z,53.90
2022-10-24T14:55:03.083Z,56.38
2022-10-24T14:57:35.287Z,53.38
2022-10-24T15:00:09.235Z,40.85
2022-10-24T15:02:43.367Z,55.35
2022-10-24T15:05:34.984Z,47.28
2022-10-24T15:08:47.595Z,41.28
2022-10-24T15:11:26.236Z,40.92
2022-10-24T15:14:06.437Z,40.50
2022-10-24T15:16:42.215Z,46.00
2022-10-24T15:19:19.788Z,38.38
2022-10-24T15:21:50.327Z,42.22
2022-10-24T15:24:25.549Z,38.45
2022-10-24T15:27:10.586Z,93.15
2022-10-24T15:29:41.814Z,70.78
2022-10-24T15:32:13.267Z,59.00
2022-10-24T15:34:43.172Z,64.38
2022-10-24T15:37:23.412Z,63.90
2022-10-24T15:42:25.170Z,52.95
2022-10-24T15:44:55.108Z,47.28
2022-10-24T15:47:26.315Z,29.40
2022-10-24T15:49:56.312Z,28.50
2022-10-24T15:52:26.217Z,29.70
2022-10-24T15:54:58.267Z,29.58
2022-10-24T15:57:28.158Z,24.23
2022-10-24T15:59:59.474Z,38.53
2022-10-24T16:02:29.319Z,33.50
2022-10-24T16:04:59.209Z,32.75
2022-10-24T16:07:29.325Z,41.72
2022-10-24T16:12:29.438Z,40.00
2022-10-24T16:17:29.557Z,52.05
2022-10-24T16:19:59.752Z,39.25
2022-10-24T16:22:29.830Z,39.95
2022-10-24T16:24:59.761Z,40.85
2022-10-24T16:27:29.849Z,35.70
2022-10-24T16:29:59.720Z,31.92
2022-10-24T16:32:29.694Z,29.33
2022-10-24T16:35:00.014Z,28.77
2022-10-24T16:39:59.125Z,27.45
2022-10-24T16:42:30.631Z,20.67
2022-10-24T16:45:00.868Z,22.95
2022-10-24T16:47:32.101Z,23.05
2022-10-24T16:50:03.113Z,19.63
2022-10-24T16:52:33.436Z,27.35
2022-10-24T16:55:03.526Z,33.95
2022-10-24T16:57:33.322Z,25.38
2022-10-24T17:00:04.549Z,36.97
2022-10-24T17:02:34.753Z,28.35
2022-10-24T17:07:34.033Z,20.95
2022-10-24T17:10:04.154Z,18.00
2022-10-24T17:12:34.366Z,23.98
2022-10-24T17:15:04.241Z,28.25
2022-10-24T17:17:35.819Z,23.85
2022-10-24T17:20:06.257Z,24.00
2022-10-24T17:22:36.238Z,21.98
2022-10-24T17:25:09.073Z,24.23
2022-10-24T17:27:39.659Z,27.48
2022-10-24T17:30:10.268Z,21.13
2022-10-24T17:32:40.248Z,24.33
2022-10-24T17:35:12.374Z,22.92
2022-10-24T17:38:10.072Z,20.35
2022-10-24T17:40:47.034Z,28.95
2022-10-24T17:43:25.323Z,31.38
2022-10-24T17:45:58.894Z,25.35
2022-10-24T17:48:28.883Z,23.25
2022-10-24T17:51:00.120Z,23.42
2022-10-24T17:53:30.042Z,24.05
2022-10-24T17:56:00.119Z,22.92
2022-10-24T17:58:30.180Z,26.38
2022-10-24T18:01:00.183Z,33.00
2022-10-24T18:03:30.405Z,23.30
2022-10-24T18:06:03.333Z,31.98
2022-10-24T18:08:33.983Z,25.02
2022-10-24T18:11:05.904Z,25.67
2022-10-24T18:13:37.366Z,25.42
2022-10-24T18:16:13.295Z,31.77
2022-10-24T18:18:44.679Z,25.80
2022-10-24T18:23:50.238Z,21.55
2022-10-24T18:26:23.211Z,26.00
2022-10-24T18:28:55.261Z,31.63
2022-10-24T18:31:29.437Z,30.52
2022-10-24T18:34:04.778Z,26.20
2022-10-24T18:36:38.729Z,32.88
2022-10-24T18:39:08.625Z,32.65
2022-10-24T18:41:50.973Z,27.27
2022-10-24T18:44:29.047Z,34.15
2022-10-24T18:47:08.943Z,30.17
2022-10-24T18:49:39.852Z,23.25
2022-10-24T18:52:42.666Z,29.25
2022-10-24T18:55:26.027Z,28.17
2022-10-24T18:57:56.600Z,28.92
2022-10-24T19:00:31.743Z,25.77
2022-10-24T19:03:26.956Z,25.30
2022-10-24T19:06:31.318Z,21.50
2022-10-24T19:09:01.384Z,22.73
2022-10-24T19:11:31.344Z,25.67
2022-10-24T19:14:02.219Z,29.92
2022-10-24T19:16:32.599Z,31.10
2022-10-24T19:19:03.950Z,25.45
2022-10-24T19:21:33.969Z,31.17
2022-10-24T19:24:03.963Z,24.60
2022-10-24T19:26:34.117Z,20.60
2022-10-24T19:29:06.587Z,22.13
2022-10-24T19:31:36.584Z,24.50
2022-10-24T19:34:06.521Z,19.42
2022-10-24T19:36:36.497Z,23.15
2022-10-24T19:39:07.224Z,18.70
2022-10-24T19:41:38.047Z,27.00
2022-10-24T19:44:07.988Z,19.92
2022-10-24T19:46:37.835Z,26.75
2022-10-24T19:49:07.733Z,19.77
2022-10-24T19:51:37.848Z,15.90
2022-10-24T19:54:07.848Z,19.90
2022-10-24T19:56:37.671Z,23.98
2022-10-24T19:59:07.681Z,18.58
2022-10-24T20:01:39.472Z,21.40
2022-10-24T20:04:09.581Z,23.88
2022-10-24T20:06:39.330Z,23.15
2022-10-24T20:09:09.255Z,19.08
2022-10-24T20:11:39.192Z,15.30
2022-10-24T20:14:08.970Z,22.77
2022-10-24T20:16:38.909Z,20.83
2022-10-24T20:19:09.035Z,21.83
2022-10-24T20:21:39.178Z,19.92
2022-10-24T20:24:09.534Z,23.33
2022-10-24T20:29:08.523Z,21.08
2022-10-24T20:31:41.526Z,23.58
2022-10-24T20:34:12.657Z,20.83
2022-10-24T20:36:46.358Z,22.27
2022-10-24T20:39:17.743Z,21.83
2022-10-24T20:41:50.381Z,21.63
2022-10-24T20:44:23.547Z,21.48
2022-10-24T20:46:56.996Z,22.52
2022-10-24T20:49:27.345Z,19.05
2022-10-24T20:54:26.547Z,18.98
2022-10-24T20:56:56.351Z,20.52
2022-10-24T20:59:26.318Z,21.42
2022-10-24T21:01:56.495Z,16.98
2022-10-24T21:04:26.494Z,19.90
2022-10-24T21:06:56.333Z,21.73
2022-10-24T21:09:26.502Z,19.63
2022-10-24T21:11:56.439Z,22.48
2022-10-24T21:14:26.471Z,14.70
2022-10-24T21:16:56.441Z,19.48
2022-10-24T21:19:26.358Z,20.38
2022-10-24T21:21:56.301Z,16.13
2022-10-24T21:24:27.019Z,16.08
2022-10-24T21:26:56.831Z,13.57
2022-10-24T21:29:34.453Z,15.07
2022-10-24T21:32:04.682Z,17.73
2022-10-24T21:34:35.012Z,15.00
2022-10-24T21:39:35.025Z,15.20
2022-10-24T21:42:06.862Z,12.63
2022-10-24T21:44:37.400Z,15.70
2022-10-24T21:49:36.930Z,10.48
2022-10-24T21:52:06.910Z,13.75
2022-10-24T21:54:36.860Z,12.27
2022-10-24T21:57:06.677Z,15.40
2022-10-24T21:59:36.625Z,12.48
2022-10-24T22:02:06.927Z,13.80
2022-10-24T22:04:37.101Z,16.83
2022-10-24T22:07:08.806Z,13.98
2022-10-24T22:09:38.976Z,16.35
2022-10-24T22:12:09.129Z,13.60
2022-10-24T22:14:39.027Z,17.00
2022-10-24T22:17:08.933Z,12.00
2022-10-24T22:19:38.858Z,14.98
2022-10-24T22:22:08.829Z,13.25
2022-10-24T22:24:42.602Z,16.33
2022-10-24T22:27:12.492Z,21.27
2022-10-24T22:29:42.468Z,13.70
2022-10-24T22:32:17.456Z,13.95
2022-10-24T22:34:47.620Z,13.32
2022-10-24T22:37:33.550Z,18.73
2022-10-24T22:40:03.613Z,16.45
2022-10-24T22:42:33.729Z,20.15
2022-10-24T22:45:04.117Z,17.60
2022-10-24T22:48:07.613Z,20.60
2022-10-24T22:50:53.654Z,20.88
2022-10-24T22:53:29.213Z,17.67
2022-10-24T22:56:34.804Z,16.88
2022-10-24T22:59:04.967Z,19.40
2022-10-24T23:02:02.688Z,18.30
2022-10-24T23:05:02.696Z,24.10
2022-10-24T23:07:52.073Z,19.23
2022-10-24T23:10:24.994Z,19.23
2022-10-24T23:12:55.939Z,23.65
2022-10-24T23:15:26.257Z,19.25
2022-10-24T23:17:56.448Z,14.82
2022-10-24T23:20:45.272Z,20.52
2022-10-24T23:23:28.628Z,15.02
2022-10-24T23:26:25.491Z,21.30
2022-10-24T23:29:07.947Z,17.45
2022-10-24T23:31:38.095Z,21.75
2022-10-24T23:34:08.253Z,22.73
2022-10-24T23:36:38.592Z,18.02
2022-10-24T23:39:08.860Z,17.73
2022-10-24T23:41:39.205Z,20.80
2022-10-24T23:44:11.562Z,16.95
2022-10-24T23:46:48.311Z,16.67
2022-10-24T23:49:31.953Z,18.45
2022-10-24T23:52:28.696Z,23.77
2022-10-24T23:54:58.814Z,17.67
2022-10-24T23:57:28.997Z,19.70
2022-10-24T23:59:58.879Z,17.35
